Time;durP1;ratioP1;P1;durP2;ratioP2;P2;SDS_P1;SDS_P2;PMS_P1;PMS_P2;Temp;Humidity;BMP_temperature;BMP_pressure;BME280_temperature;BME280_humidity;BME280_pressure;Samples;Min_cycle;Max_cycle;Signal;HPM_P1;HPM_P2
2023/08/07 00:02:03;;;;;;;0.40;0.20;;;;;;;23.07;63.00;94611.34;5113304;28;20453;-57
2023/08/07 00:04:33;;;;;;;0.40;0.30;;;;;;;22.82;62.24;94614.84;5113477;28;20519;-57
2023/08/07 00:07:02;;;;;;;0.40;0.20;;;;;;;22.58;62.71;94619.47;5099624;28;20627;-56
2023/08/07 00:09:30;;;;;;;0.40;0.20;;;;;;;22.49;63.41;94624.31;5113435;28;20489;-57
2023/08/07 00:11:58;;;;;;;0.50;0.30;;;;;;;22.68;63.76;94613.47;5113445;28;20439;-57
2023/08/07 00:14:27;;;;;;;0.40;0.30;;;;;;;22.89;62.89;94621.13;5113551;28;20524;-57
2023/08/07 00:16:55;;;;;;;0.40;0.20;;;;;;;23.03;62.90;94615.13;5113209;28;20450;-57
2023/08/07 00:19:23;;;;;;;0.40;0.20;;;;;;;23.08;62.52;94614.81;5113311;28;20463;-57
2023/08/07 00:21:53;;;;;;;0.40;0.23;;;;;;;23.35;62.60;94621.78;5113212;28;20461;-57
2023/08/07 00:24:22;;;;;;;0.40;0.20;;;;;;;23.31;60.94;94627.13;5112869;28;20451;-56
2023/08/07 00:26:50;;;;;;;0.73;0.30;;;;;;;23.51;61.64;94619.69;5112608;28;20436;-56
2023/08/07 00:29:18;;;;;;;0.40;0.20;;;;;;;23.06;61.44;94622.53;5112737;28;20435;-56
2023/08/07 00:31:47;;;;;;;0.50;0.30;;;;;;;22.68;62.93;94639.69;5112963;28;20953;-56
2023/08/07 00:34:15;;;;;;;0.40;0.30;;;;;;;22.91;64.11;94637.75;5112285;28;20463;-56
2023/08/07 00:36:43;;;;;;;0.40;0.30;;;;;;;23.04;63.62;94636.41;5112952;28;20448;-56
2023/08/07 00:39:13;;;;;;;0.40;0.30;;;;;;;22.97;62.25;94627.41;5112902;28;20440;-56
2023/08/07 00:41:41;;;;;;;0.70;0.40;;;;;;;22.52;62.95;94625.50;5112590;28;20469;-56
2023/08/07 00:44:10;;;;;;;0.40;0.30;;;;;;;22.31;63.60;94625.94;5112451;28;20432;-56
2023/08/07 00:46:39;;;;;;;0.50;0.30;;;;;;;22.52;65.13;94631.69;5112621;28;20440;-56
2023/08/07 00:49:10;;;;;;;0.40;0.30;;;;;;;22.49;64.57;94637.06;5112186;28;20475;-56
2023/08/07 00:51:39;;;;;;;0.40;0.20;;;;;;;22.12;64.45;94593.59;5112601;28;20436;-56
2023/08/07 00:54:10;;;;;;;0.40;0.20;;;;;;;22.47;63.92;94639.31;5111931;28;20532;-56
2023/08/07 00:56:40;;;;;;;0.40;0.20;;;;;;;22.49;64.51;94637.06;5112422;28;20432;-56
2023/08/07 00:59:09;;;;;;;0.40;0.20;;;;;;;22.66;63.66;94642.00;5112191;28;20540;-56
2023/08/07 01:01:38;;;;;;;0.50;0.27;;;;;;;22.67;63.84;94641.63;5112427;28;20525;-56
2023/08/07 01:04:06;;;;;;;0.40;0.30;;;;;;;22.51;64.96;94634.78;5111816;27;20467;-56
2023/08/07 01:06:34;;;;;;;0.40;0.20;;;;;;;22.58;64.68;94640.28;5112085;28;20878;-56
2023/08/07 01:09:03;;;;;;;0.40;0.20;;;;;;;22.51;63.77;94640.97;5112182;28;20493;-56
2023/08/07 01:11:40;;;;;;;0.40;0.30;;;;;;;22.05;63.90;94609.66;5112083;28;20435;-56
2023/08/07 01:14:19;;;;;;;0.40;0.30;;;;;;;22.45;64.04;94641.59;5103791;28;20821;-56
2023/08/07 01:16:53;;;;;;;0.40;0.20;;;;;;;22.44;65.04;94646.22;5109673;28;20857;-56
2023/08/07 01:19:25;;;;;;;0.40;0.30;;;;;;;22.46;64.56;94645.88;5112153;28;20519;-56
2023/08/07 01:22:07;;;;;;;0.70;0.30;;;;;;;22.42;64.66;94650.41;5111540;28;20436;-56
2023/08/07 01:24:36;;;;;;;0.40;0.20;;;;;;;22.45;64.84;94652.41;5111993;28;20969;-56
2023/08/07 01:27:19;;;;;;;0.40;0.20;;;;;;;22.41;64.25;94651.56;5111968;28;20447;-56
2023/08/07 01:29:55;;;;;;;0.40;0.20;;;;;;;21.97;64.15;94637.66;5111734;28;20496;-56
2023/08/07 01:32:30;;;;;;;0.40;0.30;;;;;;;21.88;64.89;94656.00;5112038;28;20497;-56
2023/08/07 01:35:02;;;;;;;0.40;0.30;;;;;;;21.56;65.47;94668.78;5111432;28;21096;-56
2023/08/07 01:37:36;;;;;;;0.40;0.20;;;;;;;21.65;66.69;94649.72;5112062;28;20979;-56
2023/08/07 01:40:06;;;;;;;0.40;0.30;;;;;;;21.82;65.41;94657.38;5112002;28;20443;-56
2023/08/07 01:42:35;;;;;;;0.40;0.20;;;;;;;21.76;64.53;94664.19;5111910;28;20475;-56
2023/08/07 01:45:05;;;;;;;0.40;0.30;;;;;;;21.68;65.46;94670.59;5113499;28;20432;-56
2023/08/07 01:47:35;;;;;;;0.40;0.27;;;;;;;21.67;66.09;94660.94;5115429;28;20451;-55
2023/08/07 01:50:04;;;;;;;0.40;0.20;;;;;;;21.79;66.33;94661.56;5116410;28;20451;-56
2023/08/07 01:52:33;;;;;;;0.40;0.20;;;;;;;22.05;64.92;94660.94;5116299;28;20909;-55
2023/08/07 01:55:02;;;;;;;0.40;0.30;;;;;;;22.24;65.10;94669.00;5116040;28;20984;-57
2023/08/07 01:57:30;;;;;;;0.40;0.30;;;;;;;22.17;64.57;94671.56;5115531;28;20496;-56
2023/08/07 01:59:59;;;;;;;0.50;0.33;;;;;;;21.94;65.42;94670.75;5115870;28;20829;-56
2023/08/07 02:02:27;;;;;;;0.40;0.20;;;;;;;22.09;65.35;94672.56;5115982;28;20420;-56
2023/08/07 02:04:56;;;;;;;0.50;0.30;;;;;;;21.62;64.92;94677.41;5115646;28;20514;-54
2023/08/07 02:07:24;;;;;;;0.40;0.20;;;;;;;21.66;65.59;94684.41;5081771;28;20495;-55
2023/08/07 02:09:54;;;;;;;0.40;0.30;;;;;;;21.78;66.56;94678.88;5108929;28;20823;-55
2023/08/07 02:12:22;;;;;;;0.40;0.20;;;;;;;22.02;66.51;94684.03;5115996;28;20439;-55
2023/08/07 02:14:50;;;;;;;0.40;0.20;;;;;;;22.00;63.22;94689.00;5115680;28;20464;-56
2023/08/07 02:17:19;;;;;;;0.40;0.27;;;;;;;21.01;66.99;94704.13;5115717;28;20500;-55
2023/08/07 02:19:47;;;;;;;0.40;0.30;;;;;;;21.38;68.50;94708.06;5115661;28;20824;-55
2023/08/07 02:22:15;;;;;;;0.40;0.30;;;;;;;21.87;67.38;94701.06;5115846;28;20443;-55
2023/08/07 02:24:44;;;;;;;0.50;0.30;;;;;;;21.85;67.36;94711.44;5114908;28;20444;-55
2023/08/07 02:27:13;;;;;;;0.40;0.20;;;;;;;21.64;67.94;94705.56;5115674;28;20476;-55
2023/08/07 02:29:42;;;;;;;0.40;0.20;;;;;;;21.53;66.29;94702.63;5115036;28;20532;-55
2023/08/07 02:32:10;;;;;;;0.50;0.37;;;;;;;21.30;66.20;94709.06;5115563;28;20436;-55
2023/08/07 02:34:38;;;;;;;0.50;0.30;;;;;;;21.06;66.92;94703.88;5114922;28;20987;-55
2023/08/07 02:37:07;;;;;;;0.60;0.30;;;;;;;20.95;67.13;94710.91;5115560;28;20439;-55
2023/08/07 02:39:35;;;;;;;0.40;0.30;;;;;;;21.11;65.92;94714.38;5114505;27;20447;-55
2023/08/07 02:42:04;;;;;;;0.40;0.20;;;;;;;21.27;66.81;94702.47;5114946;28;20500;-55
2023/08/07 02:44:33;;;;;;;0.53;0.30;;;;;;;21.42;66.31;94709.75;5114153;28;20436;-55
2023/08/07 02:47:02;;;;;;;0.40;0.20;;;;;;;21.47;66.15;94706.75;5115199;28;20469;-54
2023/08/07 02:49:30;;;;;;;0.47;0.27;;;;;;;21.41;64.76;94713.56;5113642;28;20479;-55
2023/08/07 02:51:59;;;;;;;0.40;0.20;;;;;;;21.62;65.24;94713.25;5113403;28;20496;-55
2023/08/07 02:54:27;;;;;;;0.50;0.30;;;;;;;21.30;64.40;94717.16;5113390;28;20439;-55
2023/08/07 02:56:55;;;;;;;0.43;0.30;;;;;;;21.42;65.37;94717.81;5100028;28;20551;-55
2023/08/07 02:59:24;;;;;;;0.40;0.27;;;;;;;21.53;65.08;94715.34;5100192;28;20440;-55
2023/08/07 03:01:54;;;;;;;0.40;0.27;;;;;;;21.64;64.54;94721.75;5113371;28;20793;-54
2023/08/07 03:04:22;;;;;;;0.47;0.27;;;;;;;21.59;64.42;94724.72;5113267;28;20444;-54
2023/08/07 03:06:51;;;;;;;0.40;0.20;;;;;;;21.86;65.19;94733.78;5113542;28;20471;-55
2023/08/07 03:09:19;;;;;;;0.50;0.30;;;;;;;20.74;65.40;94738.91;5113771;28;20530;-55
2023/08/07 03:11:48;;;;;;;0.40;0.30;;;;;;;20.30;67.94;94744.63;5113245;28;20439;-55
2023/08/07 03:14:16;;;;;;;0.40;0.30;;;;;;;20.65;69.79;94745.56;5113166;28;20436;-55
2023/08/07 03:16:46;;;;;;;0.40;0.30;;;;;;;21.04;68.63;94741.16;5112772;28;20507;-54
2023/08/07 03:19:15;;;;;;;0.50;0.30;;;;;;;21.25;68.93;94747.84;5113350;28;20493;-55
2023/08/07 03:21:44;;;;;;;1.37;0.30;;;;;;;21.43;67.09;94753.63;5113017;28;20467;-54
2023/08/07 03:24:12;;;;;;;0.40;0.30;;;;;;;21.60;67.47;94750.56;5113657;28;20493;-54
2023/08/07 03:26:41;;;;;;;0.40;0.30;;;;;;;21.67;66.48;94744.53;5112972;28;20440;-55
2023/08/07 03:29:09;;;;;;;0.40;0.27;;;;;;;20.91;68.65;94748.53;5113172;28;20811;-55
2023/08/07 03:31:38;;;;;;;0.50;0.30;;;;;;;20.35;71.83;94755.16;5113336;28;20436;-55
2023/08/07 03:34:06;;;;;;;0.50;0.30;;;;;;;20.69;72.66;94757.22;5113007;28;20503;-55
2023/08/07 03:36:36;;;;;;;0.40;0.30;;;;;;;21.07;71.81;94752.03;5113168;28;20479;-55
2023/08/07 03:39:04;;;;;;;0.50;0.30;;;;;;;21.43;70.76;94757.13;5112821;28;21083;-55
2023/08/07 03:41:32;;;;;;;0.50;0.30;;;;;;;20.81;71.48;94762.53;5113219;28;20868;-55
2023/08/07 03:44:01;;;;;;;0.40;0.30;;;;;;;21.07;72.15;94757.44;5112994;28;20946;-55
2023/08/07 03:46:29;;;;;;;0.50;0.40;;;;;;;21.31;71.24;94762.63;5112470;28;20439;-55
2023/08/07 03:48:57;;;;;;;0.40;0.30;;;;;;;20.42;73.42;94758.03;5069050;28;1240896;-55
2023/08/07 03:51:26;;;;;;;0.40;0.30;;;;;;;20.69;74.70;94762.59;5113670;28;20889;-56
2023/08/07 03:53:55;;;;;;;0.47;0.30;;;;;;;20.98;73.39;94764.88;5113351;28;20492;-56
2023/08/07 03:56:24;;;;;;;0.40;0.20;;;;;;;20.80;74.71;94774.41;5113533;28;21125;-55
2023/08/07 03:58:52;;;;;;;0.50;0.30;;;;;;;20.62;74.91;94773.97;5113524;28;20497;-55
2023/08/07 04:01:21;;;;;;;0.40;0.20;;;;;;;20.69;74.29;94770.69;5113555;28;20817;-55
2023/08/07 04:03:49;;;;;;;0.40;0.20;;;;;;;20.23;76.29;94716.44;5112965;28;20515;-56
2023/08/07 04:06:17;;;;;;;0.40;0.30;;;;;;;20.91;75.90;94770.09;5113477;28;20439;-56
2023/08/07 04:08:46;;;;;;;0.40;0.30;;;;;;;20.58;74.81;94778.47;5112618;28;20523;-55
2023/08/07 04:11:17;;;;;;;0.40;0.20;;;;;;;21.18;74.57;94780.00;5113413;27;20889;-55
2023/08/07 04:13:45;;;;;;;0.70;0.50;;;;;;;21.52;71.76;94773.91;5107046;28;20437;-55
2023/08/07 04:16:13;;;;;;;0.40;0.30;;;;;;;21.15;73.56;94759.16;5105918;28;20514;-55
2023/08/07 04:18:42;;;;;;;0.40;0.20;;;;;;;20.95;75.60;94770.19;5113076;28;20439;-55
2023/08/07 04:21:10;;;;;;;0.40;0.20;;;;;;;21.04;75.02;94758.09;5113132;28;20534;-55
2023/08/07 04:23:39;;;;;;;0.40;0.20;;;;;;;21.10;73.94;94761.34;5113353;28;20856;-55
2023/08/07 04:26:10;;;;;;;0.40;0.23;;;;;;;21.19;72.60;94761.94;5112895;28;20451;-55
2023/08/07 04:28:40;;;;;;;0.50;0.30;;;;;;;21.34;71.13;94775.41;5112926;28;20439;-55
2023/08/07 04:31:08;;;;;;;0.40;0.20;;;;;;;21.51;71.33;94776.94;5112839;28;20502;-55
2023/08/07 04:33:37;;;;;;;0.40;0.20;;;;;;;21.75;70.37;94755.13;5112688;28;20435;-55
2023/08/07 04:36:05;;;;;;;0.50;0.30;;;;;;;21.80;67.71;94762.94;5112690;28;20463;-55
2023/08/07 04:38:34;;;;;;;0.40;0.30;;;;;;;21.85;68.11;94760.00;5112928;28;20841;-56
2023/08/07 04:41:03;;;;;;;0.40;0.30;;;;;;;21.90;68.69;94746.25;5112057;28;20432;-55
2023/08/07 04:43:32;;;;;;;0.40;0.30;;;;;;;22.19;68.53;94771.09;5102319;28;20817;-55
2023/08/07 04:46:02;;;;;;;0.40;0.20;;;;;;;22.28;66.74;94767.06;5109638;28;20439;-56
2023/08/07 04:48:31;;;;;;;0.40;0.30;;;;;;;22.43;67.03;94768.88;5112389;28;20478;-55
2023/08/07 04:50:59;;;;;;;0.40;0.20;;;;;;;22.66;66.37;94769.75;5112508;28;20452;-56
2023/08/07 04:53:27;;;;;;;0.47;0.30;;;;;;;22.63;64.96;94764.25;5112628;28;20436;-56
2023/08/07 04:55:56;;;;;;;0.70;0.70;;;;;;;22.21;63.48;94766.91;5112543;28;20493;-56
2023/08/07 04:58:24;;;;;;;0.60;0.40;;;;;;;22.51;65.49;94770.59;5099198;28;21151;-56
2023/08/07 05:00:56;;;;;;;0.50;0.30;;;;;;;21.64;63.58;94753.34;5085973;28;20439;-55
2023/08/07 05:03:27;;;;;;;0.40;0.30;;;;;;;21.81;65.48;94793.38;5112210;28;20539;-56
2023/08/07 05:06:00;;;;;;;0.40;0.30;;;;;;;21.65;72.06;94792.66;5112647;28;20817;-56
2023/08/07 05:08:28;;;;;;;0.50;0.30;;;;;;;20.94;79.27;94793.66;5112454;28;20493;-56
2023/08/07 05:10:57;;;;;;;0.50;0.40;;;;;;;20.59;86.81;94790.03;5112533;28;20492;-56
2023/08/07 05:13:25;;;;;;;0.50;0.30;;;;;;;20.31;87.89;94798.13;5111513;28;20572;-56
2023/08/07 05:15:53;;;;;;;0.60;0.60;;;;;;;20.09;89.23;94799.41;5112425;28;20464;-56
2023/08/07 05:18:22;;;;;;;0.50;0.30;;;;;;;20.16;86.41;94793.44;5111999;28;20452;-57
2023/08/07 05:20:51;;;;;;;0.50;0.40;;;;;;;19.88;89.42;94795.31;5112054;28;20443;-57
2023/08/07 05:23:20;;;;;;;0.50;0.37;;;;;;;20.52;85.21;94795.22;5111912;28;20527;-57
2023/08/07 05:25:48;;;;;;;0.60;0.30;;;;;;;20.79;84.12;94789.81;5111872;28;20436;-57
2023/08/07 05:28:17;;;;;;;0.40;0.30;;;;;;;21.37;78.95;94790.88;5111386;28;20496;-57
2023/08/07 05:30:45;;;;;;;0.40;0.30;;;;;;;21.75;76.04;94787.50;5112050;28;20431;-57
2023/08/07 05:33:15;;;;;;;0.50;0.37;;;;;;;21.96;74.47;94795.31;5111814;28;20450;-58
2023/08/07 05:35:43;;;;;;;0.70;0.60;;;;;;;22.08;73.07;94790.56;5111753;28;20933;-57
2023/08/07 05:38:13;;;;;;;0.70;0.70;;;;;;;22.13;72.84;94789.50;5111622;28;20483;-60
2023/08/07 05:40:41;;;;;;;0.50;0.37;;;;;;;21.50;73.51;94796.97;5112155;28;20940;-55
2023/08/07 05:43:10;;;;;;;0.40;0.20;;;;;;;21.83;74.83;94800.00;5111469;28;20797;-56
2023/08/07 05:45:39;;;;;;;0.40;0.30;;;;;;;21.95;73.20;94799.13;5111731;28;20447;-56
2023/08/07 05:48:09;;;;;;;3.03;0.30;;;;;;;21.79;71.98;94798.34;5111502;28;20540;-56
2023/08/07 05:50:37;;;;;;;0.40;0.30;;;;;;;22.49;71.86;94797.16;5111700;28;20898;-55
2023/08/07 05:53:05;;;;;;;0.40;0.30;;;;;;;22.60;68.81;94803.53;5111592;28;20817;-55
2023/08/07 05:55:35;;;;;;;0.50;0.40;;;;;;;22.37;68.83;94808.09;5111610;28;20903;-54
2023/08/07 05:58:04;;;;;;;0.40;0.30;;;;;;;22.18;70.76;94810.81;5111370;28;20471;-56
2023/08/07 06:00:32;;;;;;;0.40;0.30;;;;;;;21.89;71.03;94808.63;5111896;28;20436;-56
2023/08/07 06:03:00;;;;;;;0.40;0.30;;;;;;;22.53;69.82;94800.72;5112106;28;20435;-55
2023/08/07 06:05:29;;;;;;;4.13;0.63;;;;;;;22.40;67.15;94801.22;5111809;28;20459;-55
2023/08/07 06:07:58;;;;;;;0.50;0.30;;;;;;;22.86;67.38;94802.91;5111630;28;20447;-55
2023/08/07 06:10:26;;;;;;;0.70;0.30;;;;;;;23.24;67.84;94804.72;5111313;28;20432;-56
2023/08/07 06:12:56;;;;;;;0.50;0.50;;;;;;;23.83;64.59;94813.00;5111941;28;20446;-56
2023/08/07 06:15:24;;;;;;;0.50;0.30;;;;;;;23.90;64.25;94813.13;5111681;28;20432;-56
2023/08/07 06:17:53;;;;;;;0.40;0.30;;;;;;;24.02;63.44;94814.81;5111786;28;20467;-56
2023/08/07 06:20:21;;;;;;;0.50;0.30;;;;;;;24.47;61.59;94811.16;5111339;28;20432;-56
2023/08/07 06:22:49;;;;;;;0.50;0.30;;;;;;;24.95;60.66;94822.94;5111413;28;20493;-56
2023/08/07 06:25:19;;;;;;;0.63;0.63;;;;;;;24.67;59.47;94823.38;5111553;28;20436;-56
2023/08/07 06:27:47;;;;;;;0.40;0.30;;;;;;;25.32;59.15;94820.19;5110825;28;20436;-56
2023/08/07 06:30:17;;;;;;;0.50;0.30;;;;;;;25.49;57.30;94823.09;5111557;28;20439;-55
2023/08/07 06:32:45;;;;;;;0.50;0.40;;;;;;;25.85;57.06;94814.06;5114896;28;20486;-56
2023/08/07 06:35:13;;;;;;;0.47;0.47;;;;;;;26.06;56.61;94810.69;5115506;27;20446;-57
2023/08/07 06:37:42;;;;;;;0.40;0.20;;;;;;;26.30;55.33;94809.28;5115124;28;20477;-57
2023/08/07 06:40:11;;;;;;;0.43;0.33;;;;;;;26.58;54.48;94812.13;5115199;28;20471;-57
2023/08/07 06:42:39;;;;;;;0.40;0.30;;;;;;;26.97;52.40;94812.25;5114775;28;20507;-54
2023/08/07 06:45:08;;;;;;;0.60;0.50;;;;;;;26.24;51.02;94759.97;5115293;28;20442;-55
2023/08/07 06:47:38;;;;;;;0.40;0.30;;;;;;;27.19;51.17;94813.88;5114334;28;20439;-62
2023/08/07 06:50:07;;;;;;;0.40;0.30;;;;;;;27.69;51.34;94809.25;5115038;28;20447;-62
2023/08/07 06:52:36;;;;;;;0.50;0.30;;;;;;;26.93;48.37;94809.53;5114603;28;20799;-62
2023/08/07 06:55:05;;;;;;;0.70;0.30;;;;;;;27.44;50.13;94811.19;5115206;28;20465;-61
2023/08/07 06:57:33;;;;;;;0.33;0.30;;;;;;;27.76;47.62;94806.50;5101403;28;20912;-61
2023/08/07 07:00:02;;;;;;;0.50;0.30;;;;;;;28.22;46.43;94804.50;5114973;28;20454;-59
2023/08/07 07:02:30;;;;;;;0.43;0.27;;;;;;;28.44;46.15;94799.75;5114209;28;20860;-61
2023/08/07 07:05:00;;;;;;;0.40;0.30;;;;;;;28.28;46.42;94816.53;5114629;28;20450;-60
2023/08/07 07:07:28;;;;;;;0.73;0.73;;;;;;;28.42;45.33;94801.31;5114987;28;20435;-58
2023/08/07 07:09:57;;;;;;;0.30;0.30;;;;;;;28.73;45.76;94803.97;5114602;27;20928;-59
2023/08/07 07:12:26;;;;;;;0.40;0.30;;;;;;;28.73;44.28;94812.13;5114338;28;20427;-61
2023/08/07 07:14:54;;;;;;;0.40;0.30;;;;;;;28.69;44.26;94811.38;5114048;28;20435;-57
2023/08/07 07:17:22;;;;;;;0.40;0.30;;;;;;;29.07;44.12;94811.56;5114138;28;20553;-58
2023/08/07 07:19:51;;;;;;;2.10;0.43;;;;;;;28.78;45.04;94806.28;5114239;28;20439;-56
2023/08/07 07:22:21;;;;;;;0.40;0.40;;;;;;;29.02;44.51;94810.03;5114133;28;20439;-56
2023/08/07 07:24:49;;;;;;;0.30;0.20;;;;;;;29.83;44.13;94804.00;5114146;28;20428;-57
2023/08/07 07:27:17;;;;;;;0.57;0.30;;;;;;;29.76;41.15;94809.50;5114250;28;20826;-55
2023/08/07 07:29:49;;;;;;;0.40;0.30;;;;;;;29.83;41.16;94814.94;5113982;28;20833;-56
2023/08/07 07:32:17;;;;;;;6.00;0.50;;;;;;;30.29;41.02;94794.56;5114187;28;20446;-56
2023/08/07 07:34:46;;;;;;;0.30;0.20;;;;;;;30.56;41.22;94806.41;5113966;28;20444;-55
2023/08/07 07:37:16;;;;;;;0.50;0.30;;;;;;;30.95;40.33;94784.81;5113799;28;20527;-55
2023/08/07 07:39:46;;;;;;;0.40;0.30;;;;;;;30.39;38.70;94801.91;5113754;28;20571;-55
2023/08/07 07:42:14;;;;;;;0.40;0.30;;;;;;;30.93;37.81;94806.34;5112513;28;20479;-55
2023/08/07 07:44:43;;;;;;;0.30;0.30;;;;;;;30.24;37.13;94801.25;5087421;28;20440;-55
2023/08/07 07:47:12;;;;;;;0.70;0.70;;;;;;;30.39;36.87;94808.16;5113419;28;20522;-55
2023/08/07 07:49:46;;;;;;;0.50;0.30;;;;;;;30.56;37.15;94804.44;5113254;28;20479;-55
2023/08/07 07:52:14;;;;;;;0.40;0.37;;;;;;;30.58;38.27;94799.34;5113270;28;20500;-56
2023/08/07 07:54:43;;;;;;;0.40;0.40;;;;;;;30.53;37.26;94794.31;5113556;28;20439;-56
2023/08/07 07:57:13;;;;;;;0.50;0.40;;;;;;;31.06;37.47;94799.13;5113451;28;20443;-55
2023/08/07 07:59:41;;;;;;;0.40;0.30;;;;;;;31.50;37.30;94786.38;5113107;28;21055;-56
2023/08/07 08:02:09;;;;;;;0.43;0.30;;;;;;;32.15;35.94;94785.66;5113163;28;20431;-54
2023/08/07 08:04:38;;;;;;;0.30;0.20;;;;;;;31.81;35.53;94774.88;5112898;28;20443;-56
2023/08/07 08:07:07;;;;;;;0.43;0.30;;;;;;;32.39;34.47;94787.16;5112607;28;20436;-55
2023/08/07 08:09:35;;;;;;;0.40;0.30;;;;;;;31.75;35.59;94776.53;5113504;28;20870;-56
2023/08/07 08:12:04;;;;;;;0.30;0.20;;;;;;;32.79;35.25;94779.69;5113143;28;20431;-55
2023/08/07 08:14:34;;;;;;;0.40;0.30;;;;;;;33.00;35.76;94767.47;5113196;28;20439;-56
2023/08/07 08:17:21;;;;;;;0.30;0.20;;;;;;;33.55;35.00;94783.16;5113198;28;20944;-56
2023/08/07 08:19:50;;;;;;;0.30;0.30;;;;;;;32.71;34.14;94791.25;5112480;28;20506;-56
2023/08/07 08:22:19;;;;;;;0.47;0.33;;;;;;;31.97;35.73;94779.69;5113254;28;20909;-57
2023/08/07 08:24:48;;;;;;;0.40;0.30;;;;;;;31.53;34.83;94775.34;5112557;28;20936;-57
2023/08/07 08:27:17;;;;;;;0.50;0.30;;;;;;;31.61;34.83;94762.31;5113249;28;20523;-57
2023/08/07 08:29:47;;;;;;;0.40;0.40;;;;;;;33.49;33.44;94771.09;5112846;28;20511;-56
2023/08/07 08:32:15;;;;;;;0.40;0.30;;;;;;;33.31;34.76;94768.75;5113261;28;20439;-56
2023/08/07 08:34:44;;;;;;;1.07;0.30;;;;;;;32.66;33.18;94767.06;5112678;28;20435;-56
2023/08/07 08:37:12;;;;;;;0.30;0.30;;;;;;;33.12;32.48;94761.34;5112817;28;20475;-56
2023/08/07 08:39:40;;;;;;;0.47;0.40;;;;;;;32.40;33.02;94761.28;5107845;28;21133;-54
2023/08/07 08:42:12;;;;;;;0.40;0.30;;;;;;;33.24;35.37;94763.44;5105716;28;20443;-55
2023/08/07 08:44:41;;;;;;;0.40;0.30;;;;;;;33.78;33.98;94764.47;5112413;28;20438;-55
2023/08/07 08:47:11;;;;;;;0.40;0.30;;;;;;;33.82;32.71;94769.91;5112214;28;20486;-55
2023/08/07 08:49:47;;;;;;;0.40;0.30;;;;;;;33.44;31.47;94760.63;5112031;28;20513;-55
2023/08/07 08:52:16;;;;;;;0.40;0.40;;;;;;;34.03;33.44;94757.59;5111879;28;20442;-57
2023/08/07 08:54:45;;;;;;;0.40;0.30;;;;;;;33.44;32.89;94705.66;5112083;28;20438;-54
2023/08/07 08:57:14;;;;;;;0.50;0.30;;;;;;;33.58;33.37;94752.03;5112205;28;20442;-55
2023/08/07 08:59:43;;;;;;;0.30;0.30;;;;;;;33.86;31.52;94749.34;5112113;28;21045;-55
2023/08/07 09:02:13;;;;;;;0.33;0.20;;;;;;;34.42;31.54;94746.31;5112367;28;20856;-55
2023/08/07 09:04:42;;;;;;;0.40;0.30;;;;;;;33.40;32.92;94746.94;5112093;28;20500;-55
2023/08/07 09:07:11;;;;;;;0.30;0.27;;;;;;;33.79;32.40;94738.53;5111632;28;20438;-54
2023/08/07 09:09:41;;;;;;;0.40;0.30;;;;;;;33.93;32.40;94731.88;5112056;28;20492;-55
2023/08/07 09:12:17;;;;;;;0.30;0.20;;;;;;;33.44;29.56;94733.91;5106197;28;20443;-55
2023/08/07 09:14:48;;;;;;;0.67;0.30;;;;;;;33.10;29.53;94736.28;5106265;28;20438;-55
2023/08/07 09:17:18;;;;;;;0.30;0.27;;;;;;;33.00;30.23;94734.53;5110107;28;20539;-55
2023/08/07 09:19:47;;;;;;;0.50;0.37;;;;;;;34.40;28.70;94721.22;5111286;28;20567;-56
2023/08/07 09:22:15;;;;;;;0.30;0.30;;;;;;;35.23;28.17;94721.09;5111668;28;20477;-55
2023/08/07 09:24:43;;;;;;;0.30;0.20;;;;;;;35.34;29.18;94716.03;5112190;28;20439;-56
2023/08/07 09:27:12;;;;;;;2.10;0.30;;;;;;;35.17;28.12;94714.63;5112321;28;20529;-56
2023/08/07 09:29:41;;;;;;;0.40;0.30;;;;;;;34.38;29.89;94716.13;5112162;28;20442;-55
2023/08/07 09:32:10;;;;;;;0.70;0.30;;;;;;;34.53;29.37;94708.25;5112211;28;20527;-55
2023/08/07 09:34:40;;;;;;;0.30;0.20;;;;;;;35.53;28.19;94724.06;5111428;28;20499;-55
2023/08/07 09:37:08;;;;;;;0.30;0.20;;;;;;;36.21;29.07;94717.81;5111978;28;20193;-55
2023/08/07 09:39:37;;;;;;;0.30;0.20;;;;;;;36.67;28.66;94705.09;5111660;28;20217;-55
2023/08/07 09:42:05;;;;;;;0.33;0.27;;;;;;;36.41;27.86;94713.97;5112059;28;20196;-55
2023/08/07 09:44:37;;;;;;;0.30;0.20;;;;;;;35.16;27.20;94713.06;5111720;28;20208;-54
2023/08/07 09:47:13;;;;;;;0.50;0.40;;;;;;;35.27;29.09;94710.75;5111714;28;20558;-56
2023/08/07 09:49:44;;;;;;;0.30;0.20;;;;;;;35.84;28.08;94704.91;5111606;28;20285;-57
2023/08/07 09:52:15;;;;;;;0.30;0.30;;;;;;;35.38;27.20;94700.16;5111722;28;20666;-56
2023/08/07 09:54:43;;;;;;;0.37;0.27;;;;;;;35.26;28.81;94695.44;5111602;28;20470;-56
2023/08/07 09:57:12;;;;;;;0.30;0.27;;;;;;;35.94;27.99;94701.03;5111899;28;20193;-55
2023/08/07 09:59:41;;;;;;;0.40;0.30;;;;;;;35.68;26.41;94696.78;5111938;28;20687;-52
2023/08/07 10:02:11;;;;;;;0.40;0.30;;;;;;;35.25;26.78;94693.88;5111598;28;20647;-52
2023/08/07 10:04:40;;;;;;;0.30;0.20;;;;;;;35.26;27.12;94682.44;5111804;28;20208;-52
2023/08/07 10:07:12;;;;;;;0.30;0.20;;;;;;;35.89;28.81;94690.56;5114808;28;20193;-52
2023/08/07 10:09:41;;;;;;;0.40;0.30;;;;;;;35.31;28.68;94681.88;5115302;28;20731;-51
2023/08/07 10:12:12;;;;;;;0.40;0.30;;;;;;;34.69;27.31;94686.16;5111500;28;20197;-55
2023/08/07 10:14:42;;;;;;;0.40;0.30;;;;;;;35.28;26.57;94668.19;5110050;28;20298;-52
2023/08/07 10:17:11;;;;;;;0.37;0.30;;;;;;;36.16;27.51;94679.75;5115475;28;20193;-52
2023/08/07 10:19:40;;;;;;;0.30;0.20;;;;;;;37.14;26.14;94673.72;5115358;28;20205;-51
2023/08/07 10:22:10;;;;;;;1.90;0.30;;;;;;;36.82;26.47;94684.00;5115143;28;20197;-51
2023/08/07 10:24:41;;;;;;;1.95;0.32;;;;;;;35.70;26.06;94684.09;5115476;28;20265;-52
2023/08/07 10:27:12;;;;;;;0.30;0.20;;;;;;;35.62;25.32;94671.03;5115087;28;20189;-53
2023/08/07 10:29:41;;;;;;;0.30;0.20;;;;;;;36.68;25.58;94668.00;5114876;28;20326;-52
2023/08/07 10:32:11;;;;;;;0.40;0.30;;;;;;;36.55;25.94;94661.00;5115083;28;20219;-53
2023/08/07 10:34:39;;;;;;;0.40;0.30;;;;;;;38.03;27.08;94666.81;5114542;28;20197;-52
2023/08/07 10:37:08;;;;;;;0.40;0.30;;;;;;;37.63;25.21;94646.03;5115155;28;20192;-53
2023/08/07 10:39:38;;;;;;;0.38;0.30;;;;;;;37.10;24.96;94667.56;5114609;28;20208;-54
2023/08/07 10:42:06;;;;;;;0.30;0.30;;;;;;;37.70;26.22;94656.81;5115258;28;20270;-54
2023/08/07 10:44:49;;;;;;;0.40;0.30;;;;;;;37.71;26.77;94658.34;5105000;28;20228;-53
2023/08/07 10:47:34;;;;;;;0.30;0.30;;;;;;;37.51;25.26;94656.00;5114340;27;20209;-53
2023/08/07 10:50:04;;;;;;;0.30;0.20;;;;;;;38.22;24.54;94617.75;5114429;28;20271;-54
2023/08/07 10:52:32;;;;;;;0.93;0.30;;;;;;;37.68;23.68;94654.50;5114460;28;20204;-53
2023/08/07 10:55:02;;;;;;;0.30;0.30;;;;;;;36.44;24.59;94658.63;5114341;28;20201;-53
2023/08/07 10:57:33;;;;;;;0.30;0.25;;;;;;;36.53;26.34;94641.38;5114245;28;20185;-53
2023/08/07 11:00:07;;;;;;;0.30;0.20;;;;;;;37.04;24.54;94650.78;5114235;28;20713;-53
2023/08/07 11:02:39;;;;;;;0.30;0.20;;;;;;;36.23;24.80;94640.84;5089520;28;20245;-54
2023/08/07 11:05:08;;;;;;;0.30;0.20;;;;;;;36.27;25.22;94641.50;5113531;28;20196;-53
2023/08/07 11:07:41;;;;;;;0.30;0.30;;;;;;;37.57;25.10;94609.94;5113605;28;20354;-54
2023/08/07 11:10:14;;;;;;;0.30;0.20;;;;;;;38.04;24.37;94629.63;5114012;28;20242;-53
2023/08/07 11:12:44;;;;;;;0.30;0.30;;;;;;;36.55;24.46;94625.91;5114180;28;20254;-54
2023/08/07 11:15:16;;;;;;;0.40;0.30;;;;;;;37.33;26.26;94623.56;5113734;28;20651;-54
2023/08/07 11:17:46;;;;;;;0.30;0.20;;;;;;;38.31;24.15;94623.28;5113708;28;20255;-54
2023/08/07 11:20:15;;;;;;;0.30;0.30;;;;;;;38.65;23.31;94616.56;5113686;28;20205;-53
2023/08/07 11:22:44;;;;;;;0.40;0.35;;;;;;;39.07;23.14;94614.56;5114238;28;20275;-53
2023/08/07 11:25:15;;;;;;;0.40;0.30;;;;;;;38.92;22.77;94621.25;5114298;28;20738;-54
2023/08/07 11:27:44;;;;;;;0.70;0.50;;;;;;;39.06;23.03;94595.63;5114268;28;20216;-53
2023/08/07 11:30:13;;;;;;;0.30;0.20;;;;;;;39.20;23.19;94606.03;5112612;28;20193;-54
2023/08/07 11:32:42;;;;;;;1.00;1.00;;;;;;;39.55;21.29;94609.81;5103544;28;20205;-54
2023/08/07 11:35:12;;;;;;;0.30;0.20;;;;;;;39.05;23.63;94607.94;5106819;28;20217;-53
2023/08/07 11:37:47;;;;;;;0.30;0.20;;;;;;;38.27;25.16;94599.75;5109557;28;20253;-53
2023/08/07 11:40:17;;;;;;;0.30;0.20;;;;;;;38.33;24.26;94595.16;5113527;28;20215;-53
2023/08/07 11:42:45;;;;;;;4.57;0.30;;;;;;;38.85;24.24;94597.44;5113534;28;20250;-53
2023/08/07 11:45:13;;;;;;;0.30;0.30;;;;;;;38.14;24.23;94592.41;5113989;28;20212;-53